Nyala, Nevada Weather observations

Data are for observation ending at time listed.
 Day   Time    Ave.   Ave.  Ave.  Vector   Max.   Stn.    Total    Solar   Ave.  
  of    of     Air    Rel.  Wind   Wind    Wind   Baro.  Precip.   Rad.    Soil  
Year   Day     Temp.  Hum.  Speed  Dir.    Gust   Pres.                    Temp. 
2015   (PST)    F      %     mph   deg.    mph     mb.     in.     W/m2     F   
------------------------------------------------------------------------------
  63    8:00   23.5    69    0.7    28      3.4    856     0.00      98    33.2
  63    9:00   28.4    61    2.2    20      5.4    857     0.00     187    33.2
  63   10:00   34.1    51    2.7   348      8.3    857     0.00     262    33.1
  63   11:00   37.7    39    5.9    13     11.8    857     0.00     315    33.0
  63   12:00   40.2    36    6.3    21     13.5    857     0.00     342    33.0
  63   13:00   42.2    32    6.2    26     14.7    856     0.00     340    32.9
  63   14:00   43.9    28    5.4    12     11.3    856     0.00     311    33.2
  63   15:00   45.7    26    3.0   342      9.7    856     0.00     255    35.4
  63   16:00   46.3    27    2.5   322      8.2    856     0.00     178    36.7
  63   17:00   46.5    26    1.7    30      5.5    856     0.00      89    37.0
  63   18:00   43.1    36    1.3    67      5.0    857     0.00      10    37.5
  63   19:00   35.0    59    2.6   131      6.5    857     0.00       0    37.6
  63   20:00   33.1    61    4.6   166      6.9    858     0.00       0    37.1
  63   21:00   31.7    62    2.2   153      6.1    858     0.00       0    36.5
  63   22:00   28.7    73    1.1   112      3.1    859     0.00       0    36.0
  63   23:00   27.4    75    2.3   174      5.3    860     0.00       0    35.5
  64    0:00   24.5    84    1.8    90      4.3    860     0.00       0    35.2
  64    1:00   24.8    83    1.8   140      2.9    860     0.00       0    34.8
  64    2:00   23.2    84    2.0    92      4.2    860     0.00       0    34.6
  64    3:00   21.6    88    1.8   166      4.8    861     0.00       0    34.3
  64    4:00   22.4    88    1.9   148      3.8    860     0.00       0    34.0
  64    5:00   21.9    84    2.2   162      4.9    861     0.00       0    33.8
  64    6:00   21.2    86    2.9   179      5.8    862     0.00       0    33.6
  64    7:00   21.2    85    1.2   223      5.8    862     0.00      17    33.4

Return to Nyala, Nevada graphs page.


Western Regional Climate Center,wrcc@dri.edu